createdAt,value
2017-07-16T00:01:39.271Z,10.67
2017-07-16T00:04:07.503Z,10.33
2017-07-16T00:06:35.662Z,10.13
2017-07-16T00:09:03.837Z,12.07
2017-07-16T00:11:32.004Z,10.77
2017-07-16T00:14:00.180Z,10.33
2017-07-16T00:16:28.385Z,10.13
2017-07-16T00:18:57.379Z,10.70
2017-07-16T00:21:25.584Z,9.70
2017-07-16T00:23:53.765Z,9.97
2017-07-16T00:26:21.931Z,9.30
2017-07-16T00:28:50.096Z,9.50
2017-07-16T00:31:18.425Z,9.93
2017-07-16T00:33:46.596Z,10.90
2017-07-16T00:36:14.763Z,10.00
2017-07-16T00:38:42.966Z,10.07
2017-07-16T00:41:11.886Z,10.73
2017-07-16T00:43:40.074Z,10.77
2017-07-16T00:46:08.271Z,10.43
2017-07-16T00:48:36.469Z,10.60
2017-07-16T00:51:04.630Z,9.20
2017-07-16T00:53:32.802Z,9.53
2017-07-16T00:56:00.989Z,11.47
2017-07-16T00:58:29.956Z,10.30
2017-07-16T01:00:58.127Z,9.40
2017-07-16T01:03:26.282Z,11.17
2017-07-16T01:05:54.476Z,10.60
2017-07-16T01:08:22.622Z,12.23
2017-07-16T01:10:50.763Z,10.40
2017-07-16T01:13:18.962Z,10.63
2017-07-16T01:15:47.288Z,11.10
2017-07-16T01:18:15.463Z,10.60
2017-07-16T01:20:43.638Z,9.83
2017-07-16T01:23:11.822Z,10.30
2017-07-16T01:25:40.783Z,9.50
2017-07-16T01:28:08.943Z,10.30
2017-07-16T01:30:37.110Z,10.03
2017-07-16T01:33:05.318Z,10.57
2017-07-16T01:35:33.490Z,9.13
2017-07-16T01:38:01.638Z,9.97
2017-07-16T01:40:29.818Z,10.53
2017-07-16T01:42:57.988Z,11.37
2017-07-16T01:45:26.146Z,10.20
2017-07-16T01:47:54.331Z,9.70
2017-07-16T01:50:22.502Z,10.27
2017-07-16T01:52:50.665Z,9.37
2017-07-16T01:55:18.847Z,10.80
2017-07-16T01:57:46.987Z,10.90
2017-07-16T02:00:15.151Z,9.57
2017-07-16T02:02:43.391Z,9.77
2017-07-16T02:05:11.542Z,10.50
2017-07-16T02:07:39.748Z,10.13
2017-07-16T02:10:07.938Z,10.67
2017-07-16T02:12:36.911Z,10.30
2017-07-16T02:15:05.067Z,10.17
2017-07-16T02:17:33.232Z,11.23
2017-07-16T02:20:01.451Z,9.87
2017-07-16T02:22:29.656Z,10.83
2017-07-16T02:24:57.815Z,10.90
2017-07-16T02:27:26.003Z,10.47
2017-07-16T02:29:54.151Z,10.40
2017-07-16T02:32:22.340Z,10.20
2017-07-16T02:34:50.506Z,10.13
2017-07-16T02:37:18.656Z,10.60
2017-07-16T02:39:47.610Z,10.03
2017-07-16T02:42:15.779Z,9.60
2017-07-16T02:44:43.959Z,10.30
2017-07-16T02:47:12.124Z,9.33
2017-07-16T02:49:40.279Z,9.83
2017-07-16T02:52:08.466Z,11.20
2017-07-16T02:54:36.654Z,10.57
2017-07-16T02:57:04.822Z,11.13
2017-07-16T02:59:33.009Z,11.10
2017-07-16T03:02:01.172Z,10.50
2017-07-16T03:04:29.358Z,11.00
2017-07-16T03:06:57.601Z,11.73
2017-07-16T03:09:25.770Z,10.50
2017-07-16T03:11:53.996Z,10.83
2017-07-16T03:14:23.050Z,11.37
2017-07-16T03:16:51.207Z,10.50
2017-07-16T03:19:19.392Z,10.93
2017-07-16T03:21:47.574Z,11.20
2017-07-16T03:24:15.754Z,12.07
2017-07-16T03:26:43.930Z,10.60
2017-07-16T03:29:12.112Z,10.53
2017-07-16T03:31:40.326Z,10.40
2017-07-16T03:34:08.479Z,10.17
2017-07-16T03:36:37.412Z,10.13
2017-07-16T03:39:05.639Z,10.53
2017-07-16T03:41:33.779Z,11.13
2017-07-16T03:44:01.938Z,10.53
2017-07-16T03:46:30.141Z,10.40
2017-07-16T03:48:58.319Z,10.43
2017-07-16T03:51:26.545Z,10.60
2017-07-16T03:53:54.782Z,10.33
2017-07-16T03:56:23.717Z,11.10
2017-07-16T03:58:51.959Z,10.43
2017-07-16T04:01:20.153Z,10.20
2017-07-16T04:03:48.308Z,10.63
2017-07-16T04:06:16.489Z,11.00
2017-07-16T04:08:44.621Z,11.30
2017-07-16T04:11:12.793Z,10.10
2017-07-16T04:13:40.985Z,10.57
2017-07-16T04:16:09.923Z,10.53
2017-07-16T04:18:38.103Z,10.83
2017-07-16T04:21:06.272Z,10.47
2017-07-16T04:23:34.602Z,10.57
2017-07-16T04:26:03.580Z,10.30
2017-07-16T04:28:31.889Z,10.13
2017-07-16T04:31:00.037Z,9.87
2017-07-16T04:33:28.965Z,9.87
2017-07-16T04:35:57.143Z,10.03
2017-07-16T04:38:25.521Z,10.07
2017-07-16T04:40:53.681Z,9.70
2017-07-16T04:43:21.850Z,9.70
2017-07-16T04:45:50.015Z,9.77
2017-07-16T04:48:18.940Z,9.40
2017-07-16T04:50:47.130Z,9.93
2017-07-16T04:53:15.298Z,11.03
2017-07-16T04:55:43.467Z,11.17
2017-07-16T04:58:11.667Z,10.73
2017-07-16T05:00:39.810Z,11.17
2017-07-16T05:03:08.009Z,9.97
2017-07-16T05:05:36.175Z,11.03
2017-07-16T05:08:04.339Z,11.30
2017-07-16T05:10:32.509Z,10.27
2017-07-16T05:13:00.705Z,11.20
2017-07-16T05:15:28.856Z,11.43
2017-07-16T05:17:57.014Z,10.60
2017-07-16T05:20:25.186Z,10.73
2017-07-16T05:22:53.357Z,11.27
2017-07-16T05:25:21.565Z,11.30
2017-07-16T05:27:49.722Z,11.63
2017-07-16T05:30:17.865Z,10.70
2017-07-16T05:32:46.055Z,11.47
2017-07-16T05:35:14.371Z,12.40
2017-07-16T05:37:43.360Z,11.00
2017-07-16T05:40:11.515Z,9.90
2017-07-16T05:42:39.668Z,10.73
2017-07-16T05:45:07.988Z,11.10
2017-07-16T05:47:36.158Z,10.70
2017-07-16T05:50:04.317Z,10.30
2017-07-16T05:52:32.561Z,11.40
2017-07-16T05:55:00.709Z,11.80
2017-07-16T05:57:28.858Z,9.63
2017-07-16T05:59:57.030Z,9.23
2017-07-16T06:02:25.951Z,9.83
2017-07-16T06:04:54.164Z,9.37
2017-07-16T06:07:22.366Z,8.43
2017-07-16T06:09:50.504Z,9.30
2017-07-16T06:12:18.852Z,8.70
2017-07-16T06:14:47.013Z,9.30
2017-07-16T06:17:15.183Z,9.37
2017-07-16T06:19:43.367Z,9.23
2017-07-16T06:22:11.513Z,9.33
2017-07-16T06:24:40.449Z,9.60
2017-07-16T06:27:08.645Z,8.40
2017-07-16T06:29:36.994Z,8.33
2017-07-16T06:32:05.256Z,8.47
2017-07-16T06:34:33.584Z,7.73
2017-07-16T06:37:01.733Z,7.00
2017-07-16T06:39:29.869Z,7.27
2017-07-16T06:41:58.081Z,8.93
2017-07-16T06:44:26.211Z,7.90
2017-07-16T06:46:54.442Z,7.60
2017-07-16T06:49:22.643Z,6.77
2017-07-16T06:51:51.579Z,7.80
2017-07-16T06:54:19.769Z,7.70
2017-07-16T06:56:47.912Z,7.87
2017-07-16T06:59:16.085Z,6.90
2017-07-16T07:01:44.362Z,7.40
2017-07-16T07:04:12.534Z,7.87
2017-07-16T07:06:40.722Z,7.23
2017-07-16T07:09:08.972Z,7.27
2017-07-16T07:11:37.161Z,5.63
2017-07-16T07:14:05.340Z,6.70
2017-07-16T07:16:33.523Z,5.90
2017-07-16T07:19:01.699Z,5.47
2017-07-16T07:21:29.919Z,6.30
2017-07-16T07:23:58.170Z,6.80
2017-07-16T07:26:26.352Z,7.03
2017-07-16T07:28:54.509Z,6.77
2017-07-16T07:31:22.700Z,5.60
2017-07-16T07:33:50.861Z,5.67
2017-07-16T07:36:19.026Z,5.60
2017-07-16T07:38:47.185Z,4.80
2017-07-16T07:41:15.372Z,5.50
2017-07-16T07:43:43.538Z,4.47
2017-07-16T07:46:11.738Z,4.90
2017-07-16T07:48:39.962Z,4.90
2017-07-16T07:51:08.120Z,5.23
2017-07-16T07:53:36.357Z,5.20
2017-07-16T07:56:04.599Z,4.90
2017-07-16T07:58:32.749Z,5.17
2017-07-16T08:01:00.977Z,4.30
2017-07-16T08:03:29.156Z,4.70
2017-07-16T08:05:57.320Z,5.80
2017-07-16T08:08:25.475Z,5.47
2017-07-16T08:10:53.800Z,5.03
2017-07-16T08:13:22.739Z,5.00
2017-07-16T08:15:51.839Z,5.73
2017-07-16T08:18:20.122Z,5.40
2017-07-16T08:20:48.533Z,5.20
2017-07-16T08:23:17.487Z,6.07
2017-07-16T08:25:46.824Z,4.73
2017-07-16T08:28:15.035Z,5.30
2017-07-16T08:30:43.196Z,5.13
2017-07-16T08:33:11.440Z,6.40
2017-07-16T08:35:39.594Z,5.60
2017-07-16T08:38:07.852Z,4.50
2017-07-16T08:40:36.074Z,5.40
2017-07-16T08:43:04.966Z,4.93
2017-07-16T08:45:33.928Z,4.83
2017-07-16T08:48:02.150Z,5.00
2017-07-16T08:50:30.312Z,6.17
2017-07-16T08:52:59.397Z,4.60
2017-07-16T08:55:27.619Z,4.47
2017-07-16T08:57:59.578Z,6.27
2017-07-16T09:00:27.792Z,5.73
2017-07-16T09:02:55.983Z,4.90
2017-07-16T09:05:24.923Z,5.00
2017-07-16T09:07:53.088Z,5.50
2017-07-16T09:10:21.422Z,5.20
2017-07-16T09:12:50.351Z,5.27
2017-07-16T09:15:18.696Z,4.80
2017-07-16T09:17:47.024Z,4.40
2017-07-16T09:20:15.170Z,4.30
2017-07-16T09:22:43.343Z,4.53
2017-07-16T09:25:11.530Z,5.57
2017-07-16T09:27:39.744Z,4.50
2017-07-16T09:30:09.545Z,22.17
2017-07-16T09:32:37.763Z,5.87
2017-07-16T09:35:05.908Z,4.80
2017-07-16T09:37:34.888Z,4.50
2017-07-16T09:40:03.047Z,4.30
2017-07-16T09:42:31.208Z,4.60
2017-07-16T09:44:59.427Z,4.47
2017-07-16T09:47:28.339Z,4.30
2017-07-16T09:49:56.498Z,5.37
2017-07-16T09:52:24.706Z,3.73
2017-07-16T09:54:53.077Z,4.30
2017-07-16T09:57:21.271Z,3.53
2017-07-16T09:59:49.445Z,3.73
2017-07-16T10:02:17.703Z,3.50
2017-07-16T10:04:45.844Z,5.80
2017-07-16T10:07:14.877Z,4.10
2017-07-16T10:09:43.048Z,3.63
2017-07-16T10:12:11.175Z,4.23
2017-07-16T10:14:40.217Z,4.17
2017-07-16T10:17:08.361Z,3.40
2017-07-16T10:19:36.523Z,3.53
2017-07-16T10:22:05.490Z,4.37
2017-07-16T10:24:33.651Z,3.67
2017-07-16T10:27:01.821Z,3.40
2017-07-16T10:29:30.024Z,3.97
2017-07-16T10:31:58.974Z,3.80
2017-07-16T10:34:27.155Z,3.60
2017-07-16T10:36:55.315Z,4.63
2017-07-16T10:39:23.577Z,3.73
2017-07-16T10:41:51.792Z,3.57
2017-07-16T10:44:19.971Z,3.67
2017-07-16T10:46:48.158Z,3.63
2017-07-16T10:49:17.131Z,3.37
2017-07-16T10:51:45.301Z,2.97
2017-07-16T10:54:13.482Z,2.30
2017-07-16T10:56:41.649Z,3.23
2017-07-16T10:59:09.840Z,3.20
2017-07-16T11:01:38.763Z,3.80
2017-07-16T11:04:06.943Z,2.70
2017-07-16T11:06:35.102Z,2.93
2017-07-16T11:09:03.251Z,3.10
2017-07-16T11:11:32.251Z,3.10
2017-07-16T11:14:00.422Z,2.53
2017-07-16T11:16:29.371Z,3.07
2017-07-16T11:18:57.648Z,4.10
2017-07-16T11:21:25.803Z,3.23
2017-07-16T11:23:53.950Z,2.90
2017-07-16T11:26:22.154Z,2.80
2017-07-16T11:28:50.352Z,3.70
2017-07-16T11:31:18.534Z,3.80
2017-07-16T11:33:46.695Z,3.00
2017-07-16T11:36:14.901Z,4.63
2017-07-16T11:38:43.834Z,3.73
2017-07-16T11:41:12.242Z,3.80
2017-07-16T11:43:40.415Z,4.47
2017-07-16T11:46:08.610Z,3.93
2017-07-16T11:48:37.958Z,4.50
2017-07-16T11:51:06.143Z,4.43
2017-07-16T11:53:34.296Z,4.10
2017-07-16T11:56:02.494Z,4.40
2017-07-16T11:58:30.691Z,4.57
2017-07-16T12:00:58.845Z,4.00
2017-07-16T12:03:27.007Z,5.30
2017-07-16T12:05:55.180Z,6.20
2017-07-16T12:08:23.355Z,4.53
2017-07-16T12:10:51.559Z,4.07
2017-07-16T12:13:19.758Z,4.20
2017-07-16T12:15:48.790Z,4.23
2017-07-16T12:18:19.752Z,4.80
2017-07-16T12:20:47.955Z,4.80
2017-07-16T12:23:16.126Z,4.93
2017-07-16T12:25:45.048Z,3.70
2017-07-16T12:28:13.279Z,3.77
2017-07-16T12:30:42.212Z,3.90
2017-07-16T12:33:10.375Z,3.87
2017-07-16T12:35:38.582Z,3.80
2017-07-16T12:38:06.772Z,3.30
2017-07-16T12:40:34.939Z,4.03
2017-07-16T12:43:03.139Z,4.27
2017-07-16T12:45:31.299Z,3.63
2017-07-16T12:47:59.587Z,4.17
2017-07-16T12:50:28.542Z,3.47
2017-07-16T12:52:56.701Z,3.33
2017-07-16T12:55:24.894Z,3.40
2017-07-16T12:57:53.071Z,3.23
2017-07-16T13:00:21.290Z,3.43
2017-07-16T13:02:50.470Z,3.20
2017-07-16T13:05:19.415Z,3.67
2017-07-16T13:07:47.594Z,4.00
2017-07-16T13:10:15.908Z,3.30
2017-07-16T13:12:44.880Z,3.50
2017-07-16T13:15:13.064Z,3.47
2017-07-16T13:17:42.116Z,4.13
2017-07-16T13:20:10.355Z,3.70
2017-07-16T13:22:39.322Z,3.60
2017-07-16T13:25:07.523Z,3.77
2017-07-16T13:27:36.470Z,3.70
2017-07-16T13:30:04.727Z,3.80
2017-07-16T13:32:32.922Z,3.40
2017-07-16T13:35:01.122Z,3.50
2017-07-16T13:37:29.276Z,3.70
2017-07-16T13:39:57.487Z,4.07
2017-07-16T13:42:25.807Z,3.27
2017-07-16T13:44:54.062Z,3.67
2017-07-16T13:47:22.280Z,3.57
2017-07-16T13:49:50.526Z,3.97
2017-07-16T13:52:18.702Z,3.20
2017-07-16T13:54:47.015Z,3.57
2017-07-16T13:57:15.965Z,3.47
2017-07-16T13:59:44.172Z,3.83
2017-07-16T14:02:12.354Z,3.60
2017-07-16T14:04:40.495Z,4.40
2017-07-16T14:07:08.711Z,3.87
2017-07-16T14:09:37.643Z,4.03
2017-07-16T14:12:05.814Z,3.80
2017-07-16T14:14:34.058Z,4.90
2017-07-16T14:17:02.387Z,4.27
2017-07-16T14:19:30.625Z,6.97
2017-07-16T14:21:59.090Z,4.70
2017-07-16T14:24:27.253Z,3.73
2017-07-16T14:26:55.426Z,5.03
2017-07-16T14:29:24.388Z,3.87
2017-07-16T14:31:52.646Z,4.13
2017-07-16T14:34:21.265Z,3.90
2017-07-16T14:36:50.243Z,3.67
2017-07-16T14:39:18.539Z,3.90
2017-07-16T14:41:48.208Z,4.80
2017-07-16T14:44:16.411Z,4.47
2017-07-16T14:46:45.355Z,4.30
2017-07-16T14:49:13.542Z,4.43
2017-07-16T14:51:41.829Z,4.53
2017-07-16T14:54:10.066Z,4.63
2017-07-16T14:56:38.279Z,3.80
2017-07-16T14:59:06.529Z,4.10
2017-07-16T15:01:35.005Z,5.40
2017-07-16T15:04:03.226Z,4.50
2017-07-16T15:06:32.235Z,4.40
2017-07-16T15:09:00.471Z,4.70
2017-07-16T15:11:28.699Z,4.97
2017-07-16T15:13:57.151Z,4.77
2017-07-16T15:16:25.376Z,4.77
2017-07-16T15:18:53.666Z,4.70
2017-07-16T15:21:21.977Z,4.53
2017-07-16T15:23:50.151Z,4.20
2017-07-16T15:26:19.118Z,4.83
2017-07-16T15:28:47.574Z,5.13
2017-07-16T15:31:15.802Z,4.70
2017-07-16T15:33:44.739Z,4.13
2017-07-16T15:36:13.418Z,5.23
2017-07-16T15:38:42.452Z,4.33
2017-07-16T15:41:10.644Z,4.10
2017-07-16T15:43:39.634Z,4.40
2017-07-16T15:46:08.598Z,4.70
2017-07-16T15:48:36.705Z,4.57
2017-07-16T15:51:04.883Z,4.20
2017-07-16T15:53:33.962Z,4.10
2017-07-16T15:56:02.288Z,3.90
2017-07-16T15:58:30.468Z,4.63
2017-07-16T16:00:58.619Z,4.90
2017-07-16T16:03:26.832Z,4.20
2017-07-16T16:05:55.243Z,4.50
2017-07-16T16:08:24.218Z,4.60
2017-07-16T16:10:52.771Z,4.87
2017-07-16T16:13:20.943Z,3.93
2017-07-16T16:15:49.121Z,4.50
2017-07-16T16:18:17.320Z,5.27
2017-07-16T16:20:45.509Z,5.20
2017-07-16T16:23:14.544Z,5.17
2017-07-16T16:25:42.806Z,4.90
2017-07-16T16:28:11.149Z,4.80
2017-07-16T16:30:40.127Z,4.73
2017-07-16T16:33:08.269Z,5.00
2017-07-16T16:35:36.443Z,4.63
2017-07-16T16:38:04.618Z,7.53
2017-07-16T16:40:32.798Z,5.07
2017-07-16T16:43:01.006Z,14.67
2017-07-16T16:45:30.033Z,7.80
2017-07-16T16:47:58.210Z,8.50
2017-07-16T16:50:26.415Z,8.10
2017-07-16T16:52:54.639Z,6.40
2017-07-16T16:55:23.553Z,8.63
2017-07-16T16:57:51.751Z,6.10
2017-07-16T17:00:19.931Z,6.10
2017-07-16T17:02:48.220Z,6.90
2017-07-16T17:05:16.477Z,8.47
2017-07-16T17:07:44.666Z,9.77
2017-07-16T17:10:12.942Z,14.70
2017-07-16T17:12:41.258Z,7.13
2017-07-16T17:15:09.572Z,10.47
2017-07-16T17:17:37.735Z,6.40
2017-07-16T17:20:06.074Z,7.70
2017-07-16T17:22:35.063Z,10.90
2017-07-16T17:25:04.061Z,6.17
2017-07-16T17:27:32.997Z,5.40
2017-07-16T17:30:01.312Z,5.07
2017-07-16T17:32:30.298Z,4.90
2017-07-16T17:34:58.668Z,4.07
2017-07-16T17:37:26.853Z,4.60
2017-07-16T17:39:56.190Z,4.53
2017-07-16T17:42:25.411Z,4.30
2017-07-16T17:44:53.636Z,4.93
2017-07-16T17:47:21.962Z,5.10
2017-07-16T17:49:50.158Z,5.50
2017-07-16T17:52:18.434Z,5.10
2017-07-16T17:54:47.431Z,5.10
2017-07-16T17:57:15.622Z,5.33
2017-07-16T17:59:44.628Z,4.73
2017-07-16T18:02:12.804Z,4.43
2017-07-16T18:04:40.978Z,4.73
2017-07-16T18:13:43.454Z,5.00
2017-07-16T18:16:14.373Z,4.53
2017-07-16T18:18:43.385Z,5.03
2017-07-16T18:21:41.153Z,5.00
2017-07-16T18:24:09.359Z,5.20
2017-07-16T18:26:38.330Z,4.43
2017-07-16T18:29:07.282Z,4.47
2017-07-16T18:31:35.541Z,4.50
2017-07-16T18:34:03.757Z,5.50
2017-07-16T18:36:31.911Z,5.23
2017-07-16T18:39:00.108Z,5.67
2017-07-16T18:41:28.274Z,4.97
2017-07-16T18:43:56.479Z,5.07
2017-07-16T18:46:24.667Z,4.77
2017-07-16T18:48:52.850Z,5.03
2017-07-16T18:51:21.038Z,5.47
2017-07-16T18:53:49.243Z,5.60
2017-07-16T18:56:17.439Z,5.20
2017-07-16T18:58:45.638Z,5.50
2017-07-16T19:01:13.794Z,5.20
2017-07-16T19:03:41.988Z,5.17
2017-07-16T19:06:10.132Z,4.40
2017-07-16T19:08:38.467Z,4.80
2017-07-16T19:11:06.771Z,5.23
2017-07-16T19:13:36.145Z,5.57
2017-07-16T19:16:04.328Z,4.93
2017-07-16T19:18:32.574Z,5.50
2017-07-16T19:21:00.769Z,5.93
2017-07-16T19:23:29.034Z,7.10
2017-07-16T19:25:57.283Z,7.03
2017-07-16T19:28:25.443Z,5.80
2017-07-16T19:30:53.622Z,5.67
2017-07-16T19:33:21.812Z,5.30
2017-07-16T19:35:51.719Z,5.27
2017-07-16T19:38:19.926Z,5.20
2017-07-16T19:40:48.096Z,5.13
2017-07-16T19:43:16.267Z,5.90
2017-07-16T19:45:44.487Z,5.47
2017-07-16T19:48:12.715Z,5.30
2017-07-16T19:50:40.864Z,6.07
2017-07-16T19:53:09.083Z,5.03
2017-07-16T19:55:37.236Z,5.53
2017-07-16T19:58:05.445Z,5.53
2017-07-16T20:00:33.643Z,4.77
2017-07-16T20:03:01.794Z,6.53
2017-07-16T20:05:30.793Z,5.87
2017-07-16T20:07:58.966Z,5.97
2017-07-16T20:10:27.131Z,5.90
2017-07-16T20:12:56.085Z,6.77
2017-07-16T20:15:24.671Z,6.77
2017-07-16T20:17:52.825Z,6.87
2017-07-16T20:20:20.989Z,6.13
2017-07-16T20:22:49.177Z,6.53
2017-07-16T20:25:17.335Z,6.10
2017-07-16T20:27:45.518Z,7.30
2017-07-16T20:30:13.729Z,7.97
2017-07-16T20:32:41.887Z,6.40
2017-07-16T20:35:10.076Z,6.73
2017-07-16T20:37:38.242Z,6.20
2017-07-16T20:40:06.413Z,6.47
2017-07-16T20:42:34.640Z,6.60
2017-07-16T20:45:02.801Z,6.57
2017-07-16T20:47:30.969Z,6.83
2017-07-16T20:49:59.197Z,5.60
2017-07-16T20:52:27.356Z,5.93
2017-07-16T20:54:55.571Z,6.60
2017-07-16T20:57:23.796Z,5.67
2017-07-16T20:59:51.942Z,7.00
2017-07-16T21:02:20.114Z,6.30
2017-07-16T21:04:48.341Z,6.80
2017-07-16T21:07:16.504Z,6.07
2017-07-16T21:09:44.649Z,6.90
2017-07-16T21:12:12.848Z,6.27
2017-07-16T21:14:41.058Z,6.83
2017-07-16T21:17:09.992Z,6.80
2017-07-16T21:19:38.239Z,7.20
2017-07-16T21:22:07.318Z,6.20
2017-07-16T21:24:35.478Z,7.70
2017-07-16T21:27:03.691Z,6.90
2017-07-16T21:29:31.852Z,6.30
2017-07-16T21:32:00.024Z,6.23
2017-07-16T21:34:28.978Z,6.73
2017-07-16T21:36:57.124Z,6.30
2017-07-16T21:39:25.447Z,7.23
2017-07-16T21:41:53.638Z,6.97
2017-07-16T21:44:21.840Z,7.17
2017-07-16T21:46:50.009Z,6.23
2017-07-16T21:49:18.173Z,6.30
2017-07-16T21:51:46.362Z,6.17
2017-07-16T21:54:14.536Z,6.60
2017-07-16T21:56:42.707Z,6.40
2017-07-16T21:59:10.894Z,6.17
2017-07-16T22:01:39.344Z,6.83
2017-07-16T22:04:07.502Z,6.63
2017-07-16T22:06:35.707Z,7.10
2017-07-16T22:09:03.851Z,6.60
2017-07-16T22:11:32.773Z,6.40
2017-07-16T22:14:00.960Z,6.63
2017-07-16T22:16:29.099Z,6.10
2017-07-16T22:18:57.288Z,6.60
2017-07-16T22:21:25.648Z,6.10
2017-07-16T22:23:53.821Z,6.40
2017-07-16T22:26:22.763Z,6.60
2017-07-16T22:28:50.906Z,6.30
2017-07-16T22:31:19.196Z,5.97
2017-07-16T22:33:47.384Z,6.07
2017-07-16T22:36:15.562Z,7.40
2017-07-16T22:38:43.756Z,6.80
2017-07-16T22:41:12.675Z,7.07
2017-07-16T22:43:40.823Z,6.47
2017-07-16T22:46:09.779Z,6.27
2017-07-16T22:48:37.924Z,6.80
2017-07-16T22:51:06.090Z,5.87
2017-07-16T22:53:34.382Z,6.67
2017-07-16T22:56:02.553Z,7.20
2017-07-16T22:58:30.698Z,6.90
2017-07-16T23:00:58.884Z,6.60
2017-07-16T23:03:27.067Z,7.20
2017-07-16T23:05:55.287Z,6.77
2017-07-16T23:08:23.443Z,6.13
2017-07-16T23:10:51.597Z,6.27
2017-07-16T23:13:19.781Z,6.43
2017-07-16T23:15:48.002Z,6.80
2017-07-16T23:18:16.961Z,7.10
2017-07-16T23:20:45.107Z,6.33
2017-07-16T23:23:13.315Z,6.63
2017-07-16T23:25:41.474Z,6.70
2017-07-16T23:28:09.626Z,7.37
2017-07-16T23:30:37.844Z,7.77
2017-07-16T23:33:06.000Z,6.70
2017-07-16T23:35:34.155Z,6.57
2017-07-16T23:38:02.420Z,6.80
2017-07-16T23:40:30.636Z,7.87
2017-07-16T23:42:58.801Z,7.37
2017-07-16T23:45:26.987Z,6.77
2017-07-16T23:47:55.207Z,6.90
2017-07-16T23:50:23.394Z,6.40
2017-07-16T23:52:51.567Z,7.10
2017-07-16T23:55:19.735Z,7.57
2017-07-16T23:57:47.996Z,7.73
